createdAt,value
2022-08-06T00:00:03.085Z,98619.63
2022-08-06T00:02:29.290Z,98627.00
2022-08-06T00:05:01.431Z,98635.22
2022-08-06T00:07:35.751Z,98636.28
2022-08-06T00:10:13.610Z,98634.16
2022-08-06T00:12:41.665Z,98636.94
2022-08-06T00:15:13.387Z,98651.94
2022-08-06T00:17:43.300Z,98653.47
2022-08-06T00:20:25.516Z,98658.56
2022-08-06T00:23:03.517Z,98666.41
2022-08-06T00:25:35.732Z,98672.44
2022-08-06T00:28:11.650Z,98652.91
2022-08-06T00:30:38.659Z,98661.66
2022-08-06T00:33:05.309Z,98667.63
2022-08-06T00:35:32.978Z,98676.78
2022-08-06T00:38:03.050Z,98667.44
2022-08-06T00:40:32.599Z,98675.28
2022-08-06T00:43:09.139Z,98670.03
2022-08-06T00:45:37.893Z,98660.72
2022-08-06T00:48:09.252Z,98664.88
2022-08-06T00:50:55.853Z,98660.03
2022-08-06T00:53:22.568Z,98666.59
2022-08-06T00:55:59.913Z,98673.72
2022-08-06T00:58:28.944Z,98679.78
2022-08-06T01:01:16.441Z,98677.13
2022-08-06T01:03:51.522Z,98690.41
2022-08-06T01:06:55.867Z,98673.38
2022-08-06T01:09:10.173Z,98663.97
2022-08-06T01:11:39.554Z,98673.69
2022-08-06T01:14:10.145Z,98661.91
2022-08-06T01:16:58.523Z,98674.97
2022-08-06T01:21:36.682Z,98665.97
2022-08-06T01:23:10.772Z,98675.00
2022-08-06T01:26:18.740Z,98680.59
2022-08-06T01:28:54.362Z,98683.84
2022-08-06T01:31:35.843Z,98687.59
2022-08-06T01:34:13.982Z,98688.81
2022-08-06T01:36:48.986Z,98692.38
2022-08-06T01:39:22.977Z,98700.84
2022-08-06T01:42:11.604Z,98693.00
2022-08-06T01:44:48.237Z,98680.28
2022-08-06T01:47:22.034Z,98702.19
2022-08-06T01:50:03.762Z,98694.38
2022-08-06T01:52:38.395Z,98690.38
2022-08-06T01:55:16.123Z,98695.34
2022-08-06T01:58:19.560Z,98699.97
2022-08-06T02:00:46.400Z,98701.06
2022-08-06T02:03:39.049Z,98702.38
2022-08-06T02:06:31.308Z,98707.59
2022-08-06T02:09:16.258Z,98711.78
2022-08-06T02:12:08.392Z,98706.81
2022-08-06T02:14:43.747Z,98712.19
2022-08-06T02:17:15.365Z,98701.56
2022-08-06T02:20:05.018Z,98711.13
2022-08-06T02:22:42.557Z,98710.16
2022-08-06T02:25:22.538Z,98712.72
2022-08-06T02:28:02.133Z,98718.63
2022-08-06T02:30:42.545Z,98707.19
2022-08-06T02:33:18.320Z,98718.91
2022-08-06T02:36:26.915Z,98710.03
2022-08-06T02:39:04.729Z,98732.75
2022-08-06T02:42:08.558Z,98727.44
2022-08-06T02:45:04.740Z,98746.34
2022-08-06T02:48:02.418Z,98733.41
2022-08-06T02:50:40.680Z,98731.59
2022-08-06T02:53:23.891Z,98741.63
2022-08-06T02:56:06.510Z,98734.94
2022-08-06T02:58:57.321Z,98743.09
2022-08-06T03:01:43.748Z,98729.97
2022-08-06T03:04:14.466Z,98732.97
2022-08-06T03:06:47.765Z,98740.47
2022-08-06T03:09:20.090Z,98744.53
2022-08-06T03:11:49.513Z,98749.81
2022-08-06T03:15:03.574Z,98746.56
2022-08-06T03:17:08.918Z,98744.84
2022-08-06T03:19:54.410Z,98744.84
2022-08-06T03:22:35.389Z,98741.53
2022-08-06T03:25:14.118Z,98748.56
2022-08-06T03:27:45.391Z,98749.59
2022-08-06T03:30:30.510Z,98748.44
2022-08-06T03:33:42.014Z,98756.88
2022-08-06T03:36:04.940Z,98743.25
2022-08-06T03:38:44.097Z,98760.69
2022-08-06T03:41:18.117Z,98767.25
2022-08-06T03:43:56.724Z,98761.03
2022-08-06T03:47:04.836Z,98772.44
2022-08-06T03:49:43.991Z,98766.75
2022-08-06T03:52:22.782Z,98772.66
2022-08-06T03:55:04.265Z,98782.34
2022-08-06T03:57:50.160Z,98792.53
2022-08-06T04:00:28.138Z,98790.75
2022-08-06T04:03:03.095Z,98784.94
2022-08-06T04:05:33.847Z,98778.25
2022-08-06T04:08:08.592Z,98792.00
2022-08-06T04:10:42.905Z,98796.63
2022-08-06T04:14:06.247Z,98798.47
2022-08-06T04:16:14.892Z,98803.78
2022-08-06T04:18:49.748Z,98794.31
2022-08-06T04:22:59.712Z,98800.53
2022-08-06T04:24:09.917Z,98800.97
2022-08-06T04:26:40.917Z,98816.00
2022-08-06T04:29:13.499Z,98821.78
2022-08-06T04:32:13.002Z,98821.47
2022-08-06T04:36:03.311Z,98820.13
2022-08-06T04:37:26.939Z,98834.91
2022-08-06T04:39:59.069Z,98838.25
2022-08-06T04:42:27.283Z,98828.41
2022-08-06T04:45:00.111Z,98849.31
2022-08-06T04:47:41.722Z,98846.41
2022-08-06T04:50:11.782Z,98849.53
2022-08-06T04:52:48.183Z,98850.09
2022-08-06T04:55:24.201Z,98856.34
2022-08-06T04:57:57.297Z,98864.66
2022-08-06T05:01:03.820Z,98861.38
2022-08-06T05:04:07.622Z,98864.13
2022-08-06T05:06:23.565Z,98866.31
2022-08-06T05:09:02.331Z,98868.53
2022-08-06T05:11:58.386Z,98860.53
2022-08-06T05:14:39.888Z,98864.97
2022-08-06T05:17:14.422Z,98876.91
2022-08-06T05:20:00.239Z,98876.44
2022-08-06T05:22:53.604Z,98889.03
2022-08-06T05:25:22.610Z,98895.13
2022-08-06T05:28:10.578Z,98884.38
2022-08-06T05:30:48.387Z,98891.00
2022-08-06T05:33:37.442Z,98898.69
2022-08-06T05:36:11.956Z,98896.31
2022-08-06T05:38:58.834Z,98890.31
2022-08-06T05:41:30.601Z,98897.16
2022-08-06T05:44:02.416Z,98899.25
2022-08-06T05:47:12.277Z,98896.25
2022-08-06T05:50:01.015Z,98897.75
2022-08-06T05:52:38.290Z,98897.78
2022-08-06T05:55:16.859Z,98917.72
2022-08-06T05:57:54.008Z,98909.28
2022-08-06T06:00:32.420Z,98919.22
2022-08-06T06:03:24.558Z,98915.41
2022-08-06T06:06:04.586Z,98920.72
2022-08-06T06:08:38.770Z,98911.56
2022-08-06T06:11:10.088Z,98922.91
2022-08-06T06:13:59.603Z,98918.72
2022-08-06T06:16:42.147Z,98921.53
2022-08-06T06:19:39.333Z,98931.16
2022-08-06T06:22:17.347Z,98933.06
2022-08-06T06:24:55.184Z,98932.03
2022-08-06T06:27:50.773Z,98935.47
2022-08-06T06:30:40.062Z,98923.72
2022-08-06T06:33:51.485Z,98923.94
2022-08-06T06:36:33.379Z,98930.03
2022-08-06T06:39:14.989Z,98931.22
2022-08-06T06:41:55.930Z,98945.84
2022-08-06T06:45:04.572Z,98944.63
2022-08-06T06:47:37.073Z,98943.28
2022-08-06T06:50:17.101Z,98960.19
2022-08-06T06:52:49.793Z,98949.44
2022-08-06T06:55:55.418Z,98954.88
2022-08-06T06:58:47.569Z,98957.56
2022-08-06T07:01:27.882Z,98953.72
2022-08-06T07:03:57.794Z,98964.25
2022-08-06T07:06:32.264Z,98962.88
2022-08-06T07:09:39.473Z,98968.41
2022-08-06T07:12:19.844Z,98969.09
2022-08-06T07:15:00.596Z,98963.19
2022-08-06T07:17:46.127Z,98962.75
2022-08-06T07:20:25.968Z,98969.19
2022-08-06T07:24:03.977Z,98962.03
2022-08-06T07:25:54.139Z,98972.94
2022-08-06T07:28:28.255Z,98977.69
2022-08-06T07:31:04.227Z,98967.59
2022-08-06T07:34:01.292Z,98968.56
2022-08-06T07:36:27.401Z,98971.44
2022-08-06T07:39:03.308Z,98975.38
2022-08-06T07:42:08.013Z,98973.63
2022-08-06T07:44:29.159Z,98964.25
2022-08-06T07:47:23.420Z,98960.22
2022-08-06T07:50:00.130Z,98966.84
2022-08-06T07:52:29.754Z,98973.59
2022-08-06T07:55:00.434Z,98970.25
2022-08-06T07:57:32.679Z,98958.97
2022-08-06T08:00:16.787Z,98970.41
2022-08-06T08:03:05.447Z,98983.28
2022-08-06T08:06:00.150Z,98972.00
2022-08-06T08:08:30.639Z,98960.97
2022-08-06T08:10:58.505Z,98960.28
2022-08-06T08:13:41.435Z,98973.66
2022-08-06T08:16:13.103Z,98972.38
2022-08-06T08:18:47.240Z,98981.81
2022-08-06T08:21:16.204Z,98983.03
2022-08-06T08:23:46.784Z,98978.63
2022-08-06T08:26:13.907Z,98988.22
2022-08-06T08:28:41.009Z,98972.63
2022-08-06T08:31:21.006Z,98977.69
2022-08-06T08:33:53.826Z,98983.47
2022-08-06T08:36:30.610Z,98967.66
2022-08-06T08:38:58.796Z,98978.66
2022-08-06T08:41:48.435Z,98980.72
2022-08-06T08:44:26.829Z,98978.41
2022-08-06T08:46:59.379Z,98980.50
2022-08-06T08:49:48.454Z,98979.59
2022-08-06T08:52:32.198Z,98984.16
2022-08-06T08:57:08.193Z,98970.66
2022-08-06T08:58:40.018Z,98965.31
2022-08-06T09:00:41.767Z,98956.66
2022-08-06T09:03:20.044Z,98974.78
2022-08-06T09:05:47.803Z,98955.72
2022-08-06T09:08:18.983Z,98954.97
2022-08-06T09:11:07.093Z,98975.59
2022-08-06T09:13:51.374Z,98961.84
2022-08-06T09:16:31.448Z,98964.31
2022-08-06T09:18:59.790Z,98969.75
2022-08-06T09:21:28.552Z,98968.97
2022-08-06T09:23:59.349Z,98963.22
2022-08-06T09:26:39.957Z,98968.09
2022-08-06T09:29:31.837Z,98967.25
2022-08-06T09:32:15.517Z,98973.09
2022-08-06T09:34:46.673Z,98957.44
2022-08-06T09:37:44.406Z,98957.13
2022-08-06T09:40:20.810Z,98960.22
2022-08-06T09:42:54.726Z,98964.44
2022-08-06T09:45:43.023Z,98941.28
2022-08-06T09:48:17.275Z,98959.31
2022-08-06T09:50:47.751Z,98956.09
2022-08-06T09:53:21.602Z,98950.34
2022-08-06T09:55:57.783Z,98960.88
2022-08-06T09:58:37.424Z,98964.44
2022-08-06T10:01:22.857Z,98961.75
2022-08-06T10:04:04.135Z,98959.69
2022-08-06T10:06:51.999Z,98961.09
2022-08-06T10:09:41.363Z,98953.53
2022-08-06T10:12:26.148Z,98963.31
2022-08-06T10:14:56.312Z,98957.13
2022-08-06T10:17:25.387Z,98954.56
2022-08-06T10:20:19.154Z,98960.25
2022-08-06T10:22:58.335Z,98959.63
2022-08-06T10:25:29.508Z,98955.31
2022-08-06T10:27:59.939Z,98957.06
2022-08-06T10:30:33.434Z,98953.84
2022-08-06T10:33:22.320Z,98951.69
2022-08-06T10:35:55.484Z,98951.44
2022-08-06T10:38:34.452Z,98947.63
2022-08-06T10:41:13.551Z,98948.50
2022-08-06T10:44:16.075Z,98940.91
2022-08-06T10:46:53.687Z,98947.88
2022-08-06T10:50:23.830Z,98946.06
2022-08-06T10:52:16.567Z,98950.66
2022-08-06T10:54:44.978Z,98946.94
2022-08-06T10:57:23.184Z,98937.28
2022-08-06T11:00:06.710Z,98941.09
2022-08-06T11:03:01.652Z,98940.03
2022-08-06T11:05:53.784Z,98943.81
2022-08-06T11:08:59.663Z,98937.38
2022-08-06T11:12:14.596Z,98924.56
2022-08-06T11:14:44.841Z,98927.47
2022-08-06T11:17:13.472Z,98921.91
2022-08-06T11:19:46.611Z,98928.91
2022-08-06T11:22:39.167Z,98930.47
2022-08-06T11:25:14.345Z,98918.16
2022-08-06T11:28:05.327Z,98917.91
2022-08-06T11:30:39.962Z,98927.84
2022-08-06T11:33:11.715Z,98919.78
2022-08-06T11:35:51.529Z,98911.69
2022-08-06T11:38:48.677Z,98920.59
2022-08-06T11:41:54.872Z,98903.72
2022-08-06T11:44:18.511Z,98921.06
2022-08-06T11:46:50.603Z,98921.31
2022-08-06T11:49:43.020Z,98908.50
2022-08-06T11:52:39.397Z,98914.69
2022-08-06T11:55:23.266Z,98920.59
2022-08-06T11:58:21.217Z,98899.66
2022-08-06T12:01:33.520Z,98895.09
2022-08-06T12:03:52.186Z,98918.38
2022-08-06T12:06:29.393Z,98907.94
2022-08-06T12:09:23.887Z,98894.81
2022-08-06T12:12:30.089Z,98911.72
2022-08-06T12:15:06.379Z,98898.56
2022-08-06T12:17:45.323Z,98902.53
2022-08-06T12:20:46.351Z,98889.13
2022-08-06T12:23:53.856Z,98887.97
2022-08-06T12:26:11.219Z,98890.59
2022-08-06T12:28:38.543Z,98891.06
2022-08-06T12:31:35.106Z,98886.53
2022-08-06T12:33:52.709Z,98882.09
2022-08-06T12:36:32.606Z,98880.06
2022-08-06T12:39:10.730Z,98878.97
2022-08-06T12:41:47.535Z,98880.56
2022-08-06T12:44:20.330Z,98875.69
2022-08-06T12:47:14.540Z,98868.69
2022-08-06T12:49:44.236Z,98862.50
2022-08-06T12:52:18.472Z,98866.97
2022-08-06T12:54:46.276Z,98868.72
2022-08-06T12:57:59.956Z,98862.53
2022-08-06T13:00:18.929Z,98862.50
2022-08-06T13:02:57.905Z,98854.91
2022-08-06T13:05:31.329Z,98863.50
2022-08-06T13:08:05.685Z,98853.38
2022-08-06T13:10:34.085Z,98859.47
2022-08-06T13:14:13.955Z,98833.81
2022-08-06T13:16:12.001Z,98857.28
2022-08-06T13:19:19.476Z,98853.88
2022-08-06T13:21:58.971Z,98868.03
2022-08-06T13:24:31.022Z,98838.28
2022-08-06T13:27:02.937Z,98835.28
2022-08-06T13:30:33.808Z,98845.81
2022-08-06T13:32:33.521Z,98842.94
2022-08-06T13:35:18.252Z,98838.84
2022-08-06T13:37:55.910Z,98841.91
2022-08-06T13:40:51.912Z,98840.16
2022-08-06T13:43:50.722Z,98837.09
2022-08-06T13:46:28.056Z,98825.19
2022-08-06T13:49:01.965Z,98837.06
2022-08-06T13:51:34.311Z,98835.53
2022-08-06T13:54:14.016Z,98832.28
2022-08-06T13:56:44.225Z,98821.06
2022-08-06T13:59:17.483Z,98821.13
2022-08-06T14:01:47.215Z,98821.13
2022-08-06T14:04:19.130Z,98823.78
2022-08-06T14:06:48.742Z,98830.31
2022-08-06T14:09:20.865Z,98823.63
2022-08-06T14:11:58.478Z,98824.13
2022-08-06T14:14:27.902Z,98816.34
2022-08-06T14:17:00.340Z,98804.03
2022-08-06T14:20:15.860Z,98813.75
2022-08-06T14:22:18.180Z,98798.00
2022-08-06T14:24:53.048Z,98806.41
2022-08-06T14:27:24.268Z,98808.56
2022-08-06T14:30:28.500Z,98809.13
2022-08-06T14:32:40.283Z,98807.38
2022-08-06T14:35:08.662Z,98809.31
2022-08-06T14:37:50.074Z,98795.63
2022-08-06T14:40:59.464Z,98807.03
2022-08-06T14:43:55.151Z,98815.56
2022-08-06T14:46:31.743Z,98805.94
2022-08-06T14:49:09.017Z,98806.28
2022-08-06T14:52:19.441Z,98799.44
2022-08-06T14:54:32.025Z,98808.19
2022-08-06T14:57:14.950Z,98797.47
2022-08-06T14:59:49.111Z,98791.06
2022-08-06T15:02:25.016Z,98794.25
2022-08-06T15:04:54.116Z,98793.19
2022-08-06T15:07:35.629Z,98794.22
2022-08-06T15:10:27.591Z,98783.38
2022-08-06T15:13:01.031Z,98782.78
2022-08-06T15:15:46.655Z,98790.53
2022-08-06T15:18:40.623Z,98790.75
2022-08-06T15:21:05.911Z,98784.03
2022-08-06T15:23:53.759Z,98781.97
2022-08-06T15:26:46.704Z,98768.72
2022-08-06T15:29:15.162Z,98780.53
2022-08-06T15:31:46.691Z,98781.31
2022-08-06T15:34:20.033Z,98788.75
2022-08-06T15:37:01.623Z,98776.13
2022-08-06T15:39:52.822Z,98784.16
2022-08-06T15:42:28.462Z,98779.91
2022-08-06T15:44:55.984Z,98785.44
2022-08-06T15:47:32.095Z,98779.03
2022-08-06T15:50:32.695Z,98778.59
2022-08-06T15:53:22.861Z,98772.88
2022-08-06T15:55:58.618Z,98778.19
2022-08-06T15:58:28.821Z,98777.78
2022-08-06T16:01:04.157Z,98780.03
2022-08-06T16:03:56.439Z,98783.47
2022-08-06T16:06:25.438Z,98772.28
2022-08-06T16:08:54.231Z,98760.84
2022-08-06T16:11:27.146Z,98769.88
2022-08-06T16:14:13.818Z,98757.75
2022-08-06T16:16:46.581Z,98769.19
2022-08-06T16:19:21.535Z,98773.78
2022-08-06T16:21:49.387Z,98768.25
2022-08-06T16:24:16.362Z,98773.09
2022-08-06T16:26:50.443Z,98770.00
2022-08-06T16:29:25.199Z,98776.78
2022-08-06T16:31:54.927Z,98782.00
2022-08-06T16:34:29.816Z,98769.91
2022-08-06T16:37:00.657Z,98771.19
2022-08-06T16:39:35.140Z,98790.41
2022-08-06T16:42:10.117Z,98773.22
2022-08-06T16:48:04.305Z,98771.25
2022-08-06T16:50:19.154Z,98775.22
2022-08-06T16:54:08.323Z,98761.59
2022-08-06T16:55:42.479Z,98775.31
2022-08-06T17:03:46.033Z,98773.81
2022-08-06T17:06:17.753Z,98768.03
2022-08-06T17:08:54.235Z,98761.78
2022-08-06T17:11:46.015Z,98775.56
2022-08-06T17:14:13.181Z,98771.69
2022-08-06T17:16:41.996Z,98767.34
2022-08-06T17:19:17.543Z,98780.69
2022-08-06T17:24:38.168Z,98768.25
2022-08-06T17:27:15.057Z,98779.16
2022-08-06T17:32:36.929Z,98777.91
2022-08-06T17:35:16.355Z,98785.97
2022-08-06T17:37:50.351Z,98785.13
2022-08-06T17:40:30.924Z,98785.50
2022-08-06T17:43:12.934Z,98776.31
2022-08-06T17:46:00.213Z,98784.88
2022-08-06T17:48:32.314Z,98782.16
2022-08-06T17:51:09.624Z,98779.63
2022-08-06T17:53:52.287Z,98760.66
2022-08-06T17:56:30.368Z,98767.53
2022-08-06T17:59:16.453Z,98772.81
2022-08-06T18:01:49.982Z,98776.00
2022-08-06T18:04:31.068Z,98776.38
2022-08-06T18:07:11.624Z,98771.69
2022-08-06T18:10:10.078Z,98785.72
2022-08-06T18:12:30.182Z,98782.47
2022-08-06T18:14:59.302Z,98781.16
2022-08-06T18:17:59.192Z,98781.50
2022-08-06T18:20:16.418Z,98786.88
2022-08-06T18:22:55.159Z,98774.28
2022-08-06T18:25:29.781Z,98775.91
2022-08-06T18:28:17.244Z,98769.72
2022-08-06T18:31:04.619Z,98785.25
2022-08-06T18:33:32.425Z,98793.78
2022-08-06T18:35:59.574Z,98794.84
2022-08-06T18:38:31.337Z,98786.69
2022-08-06T18:41:06.344Z,98801.66
2022-08-06T18:43:58.134Z,98792.53
2022-08-06T18:47:02.116Z,98804.22
2022-08-06T18:49:27.201Z,98806.00
2022-08-06T18:52:00.927Z,98803.56
2022-08-06T18:54:27.945Z,98807.78
2022-08-06T18:56:56.852Z,98804.38
2022-08-06T18:59:28.878Z,98814.78
2022-08-06T19:01:58.807Z,98813.91
2022-08-06T19:04:29.934Z,98820.31
2022-08-06T19:07:03.753Z,98820.75
2022-08-06T19:09:39.550Z,98817.28
2022-08-06T19:12:13.822Z,98810.03
2022-08-06T19:14:49.979Z,98828.59
2022-08-06T19:17:22.575Z,98825.84
2022-08-06T19:20:19.421Z,98824.00
2022-08-06T19:22:53.335Z,98828.38
2022-08-06T19:25:22.566Z,98834.09
2022-08-06T19:28:30.526Z,98830.34
2022-08-06T19:30:45.747Z,98837.16
2022-08-06T19:33:15.590Z,98837.69
2022-08-06T19:36:03.500Z,98841.41
2022-08-06T19:38:34.031Z,98830.41
2022-08-06T19:41:02.421Z,98835.25
2022-08-06T19:44:26.182Z,98834.22
2022-08-06T19:46:30.786Z,98839.06
2022-08-06T19:49:03.455Z,98840.47
2022-08-06T19:52:03.950Z,98847.41
2022-08-06T19:54:25.050Z,98841.06
2022-08-06T19:56:52.911Z,98844.41
2022-08-06T20:00:53.290Z,98841.81
2022-08-06T20:02:15.228Z,98851.75
2022-08-06T20:04:42.851Z,98843.94
2022-08-06T20:07:24.025Z,98839.25
2022-08-06T20:10:01.957Z,98834.00
2022-08-06T20:12:39.076Z,98856.44
2022-08-06T20:15:27.268Z,98852.16
2022-08-06T20:17:55.909Z,98838.50
2022-08-06T20:20:28.192Z,98860.06
2022-08-06T20:22:58.193Z,98859.19
2022-08-06T20:25:26.504Z,98847.09
2022-08-06T20:29:09.789Z,98859.69
2022-08-06T20:30:49.556Z,98859.81
2022-08-06T20:33:24.632Z,98854.25
2022-08-06T20:35:57.881Z,98860.13
2022-08-06T20:38:39.980Z,98861.25
2022-08-06T20:41:57.159Z,98854.13
2022-08-06T20:44:08.515Z,98850.69
2022-08-06T20:49:29.617Z,98847.28
2022-08-06T20:52:17.812Z,98851.00
2022-08-06T20:54:51.991Z,98869.72
2022-08-06T20:57:27.281Z,98855.38
2022-08-06T20:59:59.490Z,98861.84
2022-08-06T21:02:32.930Z,98859.53
2022-08-06T21:05:12.874Z,98856.97
2022-08-06T21:07:56.634Z,98856.16
2022-08-06T21:10:31.579Z,98867.47
2022-08-06T21:13:08.121Z,98856.78
2022-08-06T21:15:54.658Z,98869.63
2022-08-06T21:18:26.468Z,98855.44
2022-08-06T21:20:56.036Z,98869.31
2022-08-06T21:23:41.565Z,98848.31
2022-08-06T21:26:15.949Z,98859.78
2022-08-06T21:28:54.088Z,98849.75
2022-08-06T21:31:27.340Z,98855.66
2022-08-06T21:33:57.091Z,98853.91
2022-08-06T21:36:25.949Z,98871.69
2022-08-06T21:38:57.314Z,98870.19
2022-08-06T21:41:56.024Z,98872.03
2022-08-06T21:44:27.691Z,98868.56
2022-08-06T21:46:58.964Z,98866.97
2022-08-06T21:50:04.198Z,98861.22
2022-08-06T21:52:27.641Z,98865.78
2022-08-06T21:54:57.746Z,98867.91
2022-08-06T21:57:25.399Z,98872.41
2022-08-06T21:59:53.253Z,98881.88
2022-08-06T22:02:26.406Z,98877.03
2022-08-06T22:05:00.331Z,98876.81
2022-08-06T22:08:06.717Z,98870.91
2022-08-06T22:10:28.928Z,98866.16
2022-08-06T22:13:12.260Z,98875.31
2022-08-06T22:15:45.967Z,98882.22
2022-08-06T22:18:17.049Z,98875.06
2022-08-06T22:20:46.009Z,98889.03
2022-08-06T22:23:17.652Z,98880.84
2022-08-06T22:25:50.745Z,98876.59
2022-08-06T22:28:23.899Z,98882.47
2022-08-06T22:31:05.471Z,98871.59
2022-08-06T22:33:45.368Z,98886.38
2022-08-06T22:36:34.538Z,98874.03
2022-08-06T22:39:05.197Z,98873.09
2022-08-06T22:41:42.721Z,98881.78
2022-08-06T22:44:34.230Z,98883.63
2022-08-06T22:47:06.662Z,98877.00
2022-08-06T22:50:00.326Z,98881.47
2022-08-06T22:52:51.258Z,98882.31
2022-08-06T22:55:18.082Z,98881.56
2022-08-06T22:58:48.506Z,98876.63
2022-08-06T23:00:36.752Z,98892.06
2022-08-06T23:03:13.393Z,98886.91
2022-08-06T23:05:46.870Z,98874.94
2022-08-06T23:08:17.307Z,98889.09
2022-08-06T23:10:48.315Z,98883.47
2022-08-06T23:13:25.153Z,98889.75
2022-08-06T23:15:52.203Z,98886.81
2022-08-06T23:18:22.535Z,98886.25
2022-08-06T23:21:22.064Z,98891.34
2022-08-06T23:23:53.755Z,98883.53
2022-08-06T23:26:31.078Z,98882.88
2022-08-06T23:29:04.301Z,98874.63
2022-08-06T23:31:37.932Z,98861.94
2022-08-06T23:34:34.218Z,98879.59
2022-08-06T23:36:57.453Z,98882.84
2022-08-06T23:39:28.828Z,98878.59
2022-08-06T23:42:22.146Z,98869.19
2022-08-06T23:44:51.911Z,98881.41
2022-08-06T23:47:54.583Z,98871.81
2022-08-06T23:50:09.619Z,98889.50
2022-08-06T23:52:41.804Z,98872.41
2022-08-06T23:55:25.832Z,98883.00
2022-08-06T23:57:57.615Z,98872.94
